Time;durP1;ratioP1;P1;durP2;ratioP2;P2;SDS_P1;SDS_P2;PMS_P1;PMS_P2;Temp;Humidity;BMP_temperature;BMP_pressure;BME280_temperature;BME280_humidity;BME280_pressure;Samples;Min_cycle;Max_cycle;Signal;HPM_P1;HPM_P2
2023/01/11 00:02:10;;;;;;;;;;;15.10;72.70;;;;;;5035275;28;19960;-87
2023/01/11 00:04:35;;;;;;;;;;;15.10;72.90;;;;;;5035792;28;19995;-87
2023/01/11 00:07:01;;;;;;;;;;;15.10;73.20;;;;;;5034453;28;19948;-86
2023/01/11 00:09:26;;;;;;;;;;;15.00;73.40;;;;;;5037041;28;20267;-86
2023/01/11 00:11:53;;;;;;;;;;;15.00;73.60;;;;;;5035823;28;20273;-86
2023/01/11 00:14:19;;;;;;;;;;;15.00;73.80;;;;;;5036144;28;19909;-87
2023/01/11 00:16:45;;;;;;;;;;;15.00;74.00;;;;;;5035790;28;19920;-87
2023/01/11 00:19:10;;;;;;;;;;;15.00;74.30;;;;;;5034661;28;19923;-86
2023/01/11 00:21:36;;;;;;;;;;;14.90;74.50;;;;;;5034129;28;20077;-86
2023/01/11 00:24:01;;;;;;;;;;;14.90;74.80;;;;;;5051868;28;19909;-86
2023/01/11 00:26:27;;;;;;;;;;;14.80;75.00;;;;;;5050586;28;19909;-86
2023/01/11 00:28:53;;;;;;;;;;;14.80;75.30;;;;;;5034525;28;19916;-86
2023/01/11 00:31:18;;;;;;;;;;;14.80;75.40;;;;;;5052038;28;19958;-86
2023/01/11 00:33:44;;;;;;;;;;;14.80;75.70;;;;;;5052858;28;19920;-87
2023/01/11 00:36:10;;;;;;;;;;;14.80;75.90;;;;;;5052773;28;19916;-86
2023/01/11 00:38:52;;;;;;;;;;;14.80;76.10;;;;;;5053341;28;20359;-86
2023/01/11 00:49:31;;;;;;;;;;;14.70;77.00;;;;;;5053459;28;19920;-86
2023/01/11 00:51:58;;;;;;;;;;;14.60;77.30;;;;;;5037080;28;20191;-86
2023/01/11 00:54:23;;;;;;;;;;;14.60;77.50;;;;;;5037570;28;19916;-87
2023/01/11 00:56:49;;;;;;;;;;;14.60;77.70;;;;;;5053346;28;19917;-87
2023/01/11 00:59:14;;;;;;;;;;;14.60;77.80;;;;;;5036319;28;20015;-87
2023/01/11 01:01:40;;;;;;;;;;;14.60;78.10;;;;;;5035607;28;20007;-87
2023/01/11 01:04:06;;;;;;;;;;;14.60;78.20;;;;;;5035987;28;19917;-87
2023/01/11 01:06:31;;;;;;;;;;;14.60;78.40;;;;;;5035673;28;19908;-86
2023/01/11 01:08:57;;;;;;;;;;;14.50;78.40;;;;;;5035483;28;19944;-87
2023/01/11 01:11:23;;;;;;;;;;;14.50;78.60;;;;;;5036879;28;19917;-87
2023/01/11 01:16:33;;;;;;;;;;;14.50;78.90;;;;;;5055830;28;20147;-87
2023/01/11 01:18:58;;;;;;;;;;;14.50;79.10;;;;;;5035600;28;19913;-88
2023/01/11 01:21:25;;;;;;;;;;;14.50;79.50;;;;;;5035609;28;19963;-87
2023/01/11 01:23:51;;;;;;;;;;;14.50;79.60;;;;;;5034528;28;19909;-88
2023/01/11 01:26:16;;;;;;;;;;;14.50;79.80;;;;;;5033775;28;19909;-88
2023/01/11 01:28:42;;;;;;;;;;;14.40;79.90;;;;;;5051564;28;19908;-88
2023/01/11 01:31:08;;;;;;;;;;;14.40;80.00;;;;;;5036007;28;20297;-88
2023/01/11 01:33:33;;;;;;;;;;;14.40;80.20;;;;;;5034420;28;19985;-88
2023/01/11 01:36:03;;;;;;;;;;;14.40;80.20;;;;;;5052252;28;20136;-87
2023/01/11 01:38:28;;;;;;;;;;;14.40;80.50;;;;;;5036046;28;20104;-88
2023/01/11 01:40:55;;;;;;;;;;;14.40;80.60;;;;;;5053018;28;19943;-88
2023/01/11 01:43:22;;;;;;;;;;;14.30;80.80;;;;;;5036295;28;20264;-87
2023/01/11 01:45:49;;;;;;;;;;;14.40;81.00;;;;;;5035585;28;19935;-88
2023/01/11 01:48:17;;;;;;;;;;;14.40;81.10;;;;;;5035889;28;20287;-88
2023/01/11 01:50:47;;;;;;;;;;;14.30;81.20;;;;;;5036807;28;19913;-87
2023/01/11 01:53:17;;;;;;;;;;;14.30;81.40;;;;;;5053133;28;20396;-87
2023/01/11 02:04:12;;;;;;;;;;;14.30;82.10;;;;;;5054308;28;19920;-11
2023/01/11 02:06:50;;;;;;;;;;;14.30;82.20;;;;;;5054740;28;19908;-11
2023/01/11 02:09:34;;;;;;;;;;;14.20;82.40;;;;;;5054551;28;19909;-11
2023/01/11 02:12:06;;;;;;;;;;;14.20;82.60;;;;;;5057965;28;20049;-11
2023/01/11 02:14:36;;;;;;;;;;;14.20;82.80;;;;;;5057716;28;19909;-11
2023/01/11 02:17:10;;;;;;;;;;;14.20;83.00;;;;;;5054357;28;19909;-11
2023/01/11 02:19:48;;;;;;;;;;;14.20;83.20;;;;;;5056011;28;19917;-11
2023/01/11 02:22:25;;;;;;;;;;;14.20;83.40;;;;;;5055554;28;19994;-11
2023/01/11 02:25:31;;;;;;;;;;;14.20;83.50;;;;;;5056838;28;19942;-9
2023/01/11 02:28:23;;;;;;;;;;;14.20;83.70;;;;;;5056582;28;20008;-9
2023/01/11 02:30:49;;;;;;;;;;;14.20;83.80;;;;;;5056703;28;20138;-9
2023/01/11 02:33:27;;;;;;;;;;;14.20;84.20;;;;;;5056715;28;19916;-9
2023/01/11 02:35:55;;;;;;;;;;;14.20;84.30;;;;;;5056913;28;20302;-9
2023/01/11 02:38:42;;;;;;;;;;;14.10;84.40;;;;;;5055979;28;20249;-9
2023/01/11 02:45:00;;;;;;;;;;;14.10;84.50;;;;;;5057091;28;19912;-9
2023/01/11 02:53:47;;;;;;;;;;;14.10;85.30;;;;;;5055467;28;20316;-10
2023/01/11 02:56:22;;;;;;;;;;;14.10;85.40;;;;;;5055716;28;19908;-10
2023/01/11 02:59:07;;;;;;;;;;;14.10;85.60;;;;;;5051070;28;20010;-10
2023/01/11 03:02:03;;;;;;;;;;;14.10;86.00;;;;;;5058698;28;20163;-10
2023/01/11 03:04:38;;;;;;;;;;;14.00;86.00;;;;;;4997930;28;19909;-10
2023/01/11 03:07:31;;;;;;;;;;;14.00;86.20;;;;;;5015011;28;19905;-10
2023/01/11 03:10:15;;;;;;;;;;;14.00;86.50;;;;;;5014980;28;19975;-10
2023/01/11 03:13:09;;;;;;;;;;;14.00;86.90;;;;;;5014914;28;19909;-10
2023/01/11 03:16:03;;;;;;;;;;;14.00;87.10;;;;;;5015189;28;20052;-10
2023/01/11 03:18:53;;;;;;;;;;;14.00;87.20;;;;;;4986576;28;19909;-10
2023/01/11 03:21:30;;;;;;;;;;;14.00;87.60;;;;;;5015818;28;20147;-10
2023/01/11 03:23:56;;;;;;;;;;;14.00;87.50;;;;;;5015158;28;20263;-10
2023/01/11 03:26:52;;;;;;;;;;;14.00;87.80;;;;;;5015559;28;19909;-10
2023/01/11 03:32:52;;;;;;;;;;;13.90;88.10;;;;;;5016199;28;19948;-10
2023/01/11 03:35:39;;;;;;;;;;;13.90;88.30;;;;;;5067736;28;20128;-10
2023/01/11 03:38:16;;;;;;;;;;;13.90;88.60;;;;;;5060102;28;20137;-10
2023/01/11 03:40:45;;;;;;;;;;;13.90;88.80;;;;;;5077373;28;20183;-10
2023/01/11 03:43:21;;;;;;;;;;;13.90;88.90;;;;;;5075725;28;20239;-10
2023/01/11 03:45:46;;;;;;;;;;;13.90;89.20;;;;;;5058390;28;19908;-10
2023/01/11 03:48:28;;;;;;;;;;;13.90;89.50;;;;;;5076522;28;19977;-10
2023/01/11 03:51:06;;;;;;;;;;;13.80;89.40;;;;;;5073300;28;19915;-10
2023/01/11 03:53:59;;;;;;;;;;;13.80;89.70;;;;;;5075652;28;20011;-10
2023/01/11 03:56:46;;;;;;;;;;;13.90;90.00;;;;;;5056292;28;19926;-10
2023/01/11 03:59:15;;;;;;;;;;;14.90;85.30;;;;;;5058024;28;19912;-10
2023/01/11 04:01:43;;;;;;;;;;;15.60;80.10;;;;;;5074580;28;19916;-10
2023/01/11 04:04:15;;;;;;;;;;;15.90;77.40;;;;;;5074522;28;19908;-10
2023/01/11 04:06:49;;;;;;;;;;;16.20;75.70;;;;;;5057183;28;19958;-10
2023/01/11 04:09:15;;;;;;;;;;;16.50;73.80;;;;;;5056515;28;19908;-10
2023/01/11 04:11:50;;;;;;;;;;;16.70;72.20;;;;;;5057667;28;20056;-10
2023/01/11 04:14:22;;;;;;;;;;;16.80;71.20;;;;;;5056538;28;19928;-10
2023/01/11 04:16:47;;;;;;;;;;;17.00;70.50;;;;;;5075380;28;19908;-10
2023/01/11 04:19:13;;;;;;;;;;;17.10;69.40;;;;;;5075555;28;19916;-10
2023/01/11 04:21:38;;;;;;;;;;;17.20;68.90;;;;;;5074608;28;19920;-10
2023/01/11 04:24:29;;;;;;;;;;;17.20;68.50;;;;;;5074812;28;19920;-10
2023/01/11 04:26:54;;;;;;;;;;;17.30;68.40;;;;;;5057416;28;19909;-10
2023/01/11 04:29:45;;;;;;;;;;;17.40;67.80;;;;;;5073054;28;19919;-10
2023/01/11 04:32:13;;;;;;;;;;;17.50;67.20;;;;;;5072928;28;19909;-11
2023/01/11 04:35:01;;;;;;;;;;;17.60;66.80;;;;;;5055344;28;19938;-11
2023/01/11 04:40:29;;;;;;;;;;;17.70;66.60;;;;;;5072090;28;20201;-11
2023/01/11 04:43:30;;;;;;;;;;;17.80;66.40;;;;;;5073296;28;19912;-11
2023/01/11 04:46:01;;;;;;;;;;;17.80;66.50;;;;;;5010864;28;19913;-11
2023/01/11 04:48:48;;;;;;;;;;;17.90;66.60;;;;;;5010202;28;19999;-11
2023/01/11 04:51:32;;;;;;;;;;;18.00;65.90;;;;;;5012926;28;19909;-11
2023/01/11 04:54:35;;;;;;;;;;;18.00;65.70;;;;;;5012713;28;19910;-11
2023/01/11 05:00:01;;;;;;;;;;;18.20;65.30;;;;;;5011131;28;20074;-11
2023/01/11 05:02:42;;;;;;;;;;;18.10;65.40;;;;;;5017273;28;20019;-11
2023/01/11 05:05:08;;;;;;;;;;;18.10;65.50;;;;;;5056630;28;19912;-11
2023/01/11 05:07:40;;;;;;;;;;;18.10;65.90;;;;;;5056314;28;20181;-11
2023/01/11 05:10:21;;;;;;;;;;;18.00;66.30;;;;;;5074182;28;19931;-11
2023/01/11 05:13:14;;;;;;;;;;;17.90;66.60;;;;;;5054726;28;19909;-11
2023/01/11 05:15:40;;;;;;;;;;;17.90;67.10;;;;;;5054507;28;19912;-10
2023/01/11 05:18:12;;;;;;;;;;;17.70;67.90;;;;;;5072803;28;20213;-10
2023/01/11 05:20:53;;;;;;;;;;;17.60;68.30;;;;;;5073329;28;19908;-10
2023/01/11 05:23:32;;;;;;;;;;;17.50;69.10;;;;;;5055115;28;19993;-10
2023/01/11 05:26:00;;;;;;;;;;;17.40;70.40;;;;;;5073489;28;19909;-10
2023/01/11 05:28:32;;;;;;;;;;;17.40;70.10;;;;;;5056434;28;19909;-10
2023/01/11 05:30:58;;;;;;;;;;;17.30;70.90;;;;;;5051588;28;19916;-10
2023/01/11 05:33:27;;;;;;;;;;;17.20;71.20;;;;;;5073960;28;19908;-10
2023/01/11 05:36:14;;;;;;;;;;;17.20;71.70;;;;;;5058289;28;19909;-10
2023/01/11 05:38:46;;;;;;;;;;;17.10;72.10;;;;;;5077131;28;19920;-10
2023/01/11 05:41:30;;;;;;;;;;;17.00;72.40;;;;;;5075769;28;19978;-10
2023/01/11 05:46:52;;;;;;;;;;;17.00;73.00;;;;;;5076528;28;19924;-10
2023/01/11 05:49:18;;;;;;;;;;;17.00;73.10;;;;;;5057401;28;19908;-10
2023/01/11 05:51:59;;;;;;;;;;;17.10;73.00;;;;;;5058961;28;20209;-10
2023/01/11 05:54:46;;;;;;;;;;;17.20;72.50;;;;;;5077013;28;20413;-10
2023/01/11 05:57:18;;;;;;;;;;;17.30;71.90;;;;;;5058005;28;20175;-10
2023/01/11 05:59:44;;;;;;;;;;;17.40;71.30;;;;;;5057001;28;19976;-10
2023/01/11 06:02:18;;;;;;;;;;;17.40;71.00;;;;;;5064835;22;19983;-19
2023/01/11 06:04:52;;;;;;;;;;;17.40;70.80;;;;;;5053699;28;19919;-11
2023/01/11 06:07:18;;;;;;;;;;;17.50;70.60;;;;;;5036676;28;19967;-10
2023/01/11 06:09:46;;;;;;;;;;;17.60;70.20;;;;;;5035277;28;19909;-11
2023/01/11 06:12:12;;;;;;;;;;;17.70;69.60;;;;;;5054485;28;19920;-11
2023/01/11 06:14:37;;;;;;;;;;;17.80;68.90;;;;;;5054200;28;19909;-11
2023/01/11 06:17:03;;;;;;;;;;;17.90;68.20;;;;;;5034071;28;20017;-11
2023/01/11 06:19:29;;;;;;;;;;;17.90;68.20;;;;;;5035319;28;19909;-11
2023/01/11 06:22:06;;;;;;;;;;;17.90;68.00;;;;;;5051184;28;19912;-11
2023/01/11 06:24:32;;;;;;;;;;;18.00;67.80;;;;;;5033056;28;20015;-11
2023/01/11 06:26:58;;;;;;;;;;;18.00;67.90;;;;;;5053075;28;19972;-11
2023/01/11 06:29:23;;;;;;;;;;;18.00;67.80;;;;;;5032678;28;19909;-11
2023/01/11 06:31:49;;;;;;;;;;;17.90;68.00;;;;;;5034252;28;19973;-11
2023/01/11 06:34:14;;;;;;;;;;;17.90;68.20;;;;;;5050864;28;19970;-11
2023/01/11 06:36:40;;;;;;;;;;;18.00;68.10;;;;;;5049065;28;19920;-11
2023/01/11 06:39:09;;;;;;;;;;;18.10;67.80;;;;;;5049062;28;20023;-11
2023/01/11 06:41:35;;;;;;;;;;;18.10;67.70;;;;;;5050087;28;20146;-11
2023/01/11 06:44:00;;;;;;;;;;;18.00;67.90;;;;;;5030942;28;20465;-11
2023/01/11 06:46:29;;;;;;;;;;;18.00;68.00;;;;;;5030387;28;19909;-11
2023/01/11 06:48:57;;;;;;;;;;;18.00;68.00;;;;;;5033352;28;19909;-11
2023/01/11 06:51:23;;;;;;;;;;;17.90;68.50;;;;;;5032118;28;20819;-11
2023/01/11 06:53:50;;;;;;;;;;;17.90;68.90;;;;;;5051578;28;19909;-11
2023/01/11 06:56:17;;;;;;;;;;;17.80;69.30;;;;;;5032471;28;19909;-11
2023/01/11 06:58:49;;;;;;;;;;;17.80;69.60;;;;;;5050592;28;19909;-11
2023/01/11 07:01:16;;;;;;;;;;;17.80;70.10;;;;;;5040991;28;20122;-11
2023/01/11 07:03:41;;;;;;;;;;;17.80;70.50;;;;;;5070292;28;19952;-11
2023/01/11 07:06:10;;;;;;;;;;;17.80;70.70;;;;;;5051528;28;19951;-11
2023/01/11 07:08:37;;;;;;;;;;;17.80;71.30;;;;;;5051935;28;19908;-11
2023/01/11 07:11:02;;;;;;;;;;;17.80;71.70;;;;;;5049014;28;19978;-11
2023/01/11 07:13:31;;;;;;;;;;;17.80;72.60;;;;;;5053480;28;20385;-11
2023/01/11 07:15:56;;;;;;;;;;;17.80;72.80;;;;;;5070945;28;19913;-11
2023/01/11 07:18:22;;;;;;;;;;;17.70;73.50;;;;;;5072474;28;19908;-11
2023/01/11 07:20:49;;;;;;;;;;;17.70;73.70;;;;;;5052731;28;20022;-11
2023/01/11 07:23:15;;;;;;;;;;;17.70;73.80;;;;;;5069460;28;19909;-11
2023/01/11 07:25:40;;;;;;;;;;;17.80;74.10;;;;;;5070486;28;20187;-11
2023/01/11 07:28:07;;;;;;;;;;;17.80;74.60;;;;;;5070657;28;19974;-11
2023/01/11 07:30:44;;;;;;;;;;;17.80;74.50;;;;;;5050100;28;20257;-11
2023/01/11 07:33:10;;;;;;;;;;;17.80;74.80;;;;;;5048841;28;19909;-11
2023/01/11 07:35:39;;;;;;;;;;;17.80;75.00;;;;;;5049026;28;19908;-11
2023/01/11 07:38:08;;;;;;;;;;;17.90;75.30;;;;;;5067691;28;19995;-11
2023/01/11 07:40:52;;;;;;;;;;;17.80;75.40;;;;;;5068742;28;19908;-11
2023/01/11 07:43:34;;;;;;;;;;;17.90;75.90;;;;;;5052687;28;20147;-11
2023/01/11 07:45:59;;;;;;;;;;;17.90;75.40;;;;;;5070066;28;20002;-10
2023/01/11 07:48:25;;;;;;;;;;;17.90;75.40;;;;;;5070835;28;20109;-10
2023/01/11 07:50:51;;;;;;;;;;;17.80;75.70;;;;;;5071379;28;20124;-10
2023/01/11 07:53:17;;;;;;;;;;;17.80;75.40;;;;;;5052622;28;19936;-11
2023/01/11 07:55:46;;;;;;;;;;;17.90;75.10;;;;;;5068631;28;19975;-10
2023/01/11 07:58:15;;;;;;;;;;;17.90;74.60;;;;;;5051548;28;20461;-10
2023/01/11 08:00:40;;;;;;;;;;;17.90;74.60;;;;;;5051033;28;19935;-11
2023/01/11 08:03:12;;;;;;;;;;;18.00;74.50;;;;;;5049149;28;20270;-11
2023/01/11 08:05:43;;;;;;;;;;;17.90;74.60;;;;;;5050497;28;20304;-11
2023/01/11 08:08:12;;;;;;;;;;;17.90;74.70;;;;;;5047787;28;20066;-11
2023/01/11 08:10:37;;;;;;;;;;;17.90;74.90;;;;;;5068673;28;19947;-10
2023/01/11 08:15:50;;;;;;;;;;;17.90;75.20;;;;;;5069796;28;20296;-10
2023/01/11 08:18:19;;;;;;;;;;;17.80;75.40;;;;;;5068297;28;19909;-10
2023/01/11 08:21:03;;;;;;;;;;;17.80;75.60;;;;;;5051255;28;19908;-10
2023/01/11 08:23:30;;;;;;;;;;;17.70;75.60;;;;;;5076842;28;19920;-10
2023/01/11 08:26:01;;;;;;;;;;;17.70;76.20;;;;;;5077287;28;20528;-10
2023/01/11 08:28:27;;;;;;;;;;;17.60;76.70;;;;;;5055398;28;19909;-10
2023/01/11 08:31:11;;;;;;;;;;;17.50;77.30;;;;;;5051324;28;20190;-10
2023/01/11 08:33:37;;;;;;;;;;;17.40;77.80;;;;;;5051081;28;19908;-10
2023/01/11 08:36:06;;;;;;;;;;;17.30;78.70;;;;;;5052054;28;19908;-10
2023/01/11 08:38:35;;;;;;;;;;;17.20;79.30;;;;;;5068836;28;19942;-10
2023/01/11 08:41:14;;;;;;;;;;;17.10;80.00;;;;;;5070912;28;20198;-10
2023/01/11 08:43:48;;;;;;;;;;;17.00;80.80;;;;;;5068941;28;19974;-11
2023/01/11 08:46:16;;;;;;;;;;;16.90;81.40;;;;;;5050999;28;20207;-10
2023/01/11 08:49:01;;;;;;;;;;;17.00;81.20;;;;;;5048924;28;19913;-10
2023/01/11 08:51:26;;;;;;;;;;;17.10;80.80;;;;;;5044702;28;20190;-10
2023/01/11 08:53:52;;;;;;;;;;;17.30;79.60;;;;;;5064129;28;20098;-10
2023/01/11 08:56:20;;;;;;;;;;;17.50;78.70;;;;;;5063938;28;20010;-10
2023/01/11 08:58:46;;;;;;;;;;;17.70;77.50;;;;;;5064387;28;20007;-10
2023/01/11 09:01:12;;;;;;;;;;;17.90;76.70;;;;;;5038949;28;20280;-10
2023/01/11 09:03:38;;;;;;;;;;;18.00;75.70;;;;;;5046438;28;20195;-10
2023/01/11 09:06:06;;;;;;;;;;;18.20;74.80;;;;;;5029662;28;19912;-10
2023/01/11 09:08:38;;;;;;;;;;;18.30;73.70;;;;;;5034901;28;20314;-10
2023/01/11 09:11:52;;;;;;;;;;;18.40;72.90;;;;;;5045394;28;20229;-10
2023/01/11 09:13:52;;;;;;;;;;;18.50;72.10;;;;;;5045700;28;19971;-11
2023/01/11 09:16:18;;;;;;;;;;;18.60;71.70;;;;;;5028799;28;20013;-11
2023/01/11 09:18:43;;;;;;;;;;;18.60;71.60;;;;;;5024080;28;19909;-11
2023/01/11 09:21:09;;;;;;;;;;;18.60;71.80;;;;;;5047370;28;19920;-11
2023/01/11 09:23:35;;;;;;;;;;;18.50;72.00;;;;;;5047429;28;20038;-11
2023/01/11 09:26:04;;;;;;;;;;;18.50;72.60;;;;;;5047211;28;20110;-11
2023/01/11 09:28:35;;;;;;;;;;;18.30;73.10;;;;;;5047112;28;19909;-11
2023/01/11 09:31:01;;;;;;;;;;;18.30;73.50;;;;;;5028765;28;19908;-11
2023/01/11 09:33:26;;;;;;;;;;;18.20;74.00;;;;;;5027882;28;20262;-11
2023/01/11 09:35:53;;;;;;;;;;;18.10;74.40;;;;;;5029033;28;20129;-11
2023/01/11 09:38:28;;;;;;;;;;;18.10;74.90;;;;;;5047495;28;19923;-11
2023/01/11 09:41:02;;;;;;;;;;;18.00;75.70;;;;;;5048105;28;19917;-11
2023/01/11 09:43:29;;;;;;;;;;;17.80;76.30;;;;;;5045218;28;19923;-11
2023/01/11 09:45:59;;;;;;;;;;;17.80;77.00;;;;;;5045653;28;19916;-11
2023/01/11 09:48:44;;;;;;;;;;;17.70;77.60;;;;;;5026152;28;19952;-11
2023/01/11 09:54:00;;;;;;;;;;;17.60;78.70;;;;;;5045841;28;19935;-11
2023/01/11 09:56:35;;;;;;;;;;;17.50;79.10;;;;;;5026118;28;19915;-11
2023/01/11 09:59:25;;;;;;;;;;;17.40;79.60;;;;;;5047340;28;19947;-11
2023/01/11 10:02:26;;;;;;;;;;;17.40;80.20;;;;;;5028185;28;19927;-10
2023/01/11 10:04:52;;;;;;;;;;;17.30;80.70;;;;;;4964257;28;19910;-11
2023/01/11 10:07:36;;;;;;;;;;;17.30;81.20;;;;;;4992185;28;19913;-11
2023/01/11 10:10:17;;;;;;;;;;;17.30;82.10;;;;;;5027337;28;19909;-10
2023/01/11 10:13:03;;;;;;;;;;;17.30;81.50;;;;;;5047150;28;19912;-10
2023/01/11 10:15:34;;;;;;;;;;;17.30;81.60;;;;;;5026134;28;19909;-11
2023/01/11 10:18:18;;;;;;;;;;;17.40;81.40;;;;;;5045714;28;20255;-11
2023/01/11 10:21:03;;;;;;;;;;;17.50;80.70;;;;;;5046014;28;20256;-10
2023/01/11 10:23:53;;;;;;;;;;;17.50;80.20;;;;;;5030345;28;19913;-10
2023/01/11 10:26:45;;;;;;;;;;;17.70;79.50;;;;;;5017394;28;20023;-10
2023/01/11 10:29:37;;;;;;;;;;;17.80;78.80;;;;;;5029587;28;20270;-11
2023/01/11 10:41:34;;;;;;;;;;;18.00;77.10;;;;;;5048505;28;19924;-11
2023/01/11 10:44:07;;;;;;;;;;;18.00;77.20;;;;;;5026683;28;20007;-11
2023/01/11 10:47:08;;;;;;;;;;;18.00;77.10;;;;;;5030640;28;20032;-11
2023/01/11 10:49:53;;;;;;;;;;;18.10;77.40;;;;;;5027126;28;20057;-11
2023/01/11 10:52:28;;;;;;;;;;;18.10;76.80;;;;;;5030148;28;19909;-11
2023/01/11 10:55:08;;;;;;;;;;;18.10;76.90;;;;;;5050323;28;19920;-11
2023/01/11 10:57:52;;;;;;;;;;;18.10;77.00;;;;;;5051587;28;19909;-11
2023/01/11 11:00:37;;;;;;;;;;;18.00;77.80;;;;;;5050811;28;19909;-11
2023/01/11 11:03:21;;;;;;;;;;;18.00;77.90;;;;;;5069880;28;19919;-11
2023/01/11 11:05:57;;;;;;;;;;;18.00;77.80;;;;;;5068902;28;19916;-11
2023/01/11 11:08:25;;;;;;;;;;;18.10;77.90;;;;;;5069473;28;19909;-11
2023/01/11 11:11:00;;;;;;;;;;;18.10;78.10;;;;;;5051018;28;20218;-11
2023/01/11 11:13:28;;;;;;;;;;;18.10;78.00;;;;;;5067557;28;19909;-11
2023/01/11 11:16:15;;;;;;;;;;;18.00;78.10;;;;;;5066682;28;20436;-11
2023/01/11 11:18:44;;;;;;;;;;;18.00;78.80;;;;;;5066189;28;19908;-11
2023/01/11 11:21:21;;;;;;;;;;;17.90;79.00;;;;;;5065625;28;20281;-11
2023/01/11 11:23:50;;;;;;;;;;;17.90;79.50;;;;;;5048719;28;19919;-11
2023/01/11 11:26:22;;;;;;;;;;;17.80;80.00;;;;;;5048658;28;19939;-11
2023/01/11 11:29:01;;;;;;;;;;;17.70;80.30;;;;;;5068098;28;19916;-11
2023/01/11 11:31:28;;;;;;;;;;;17.70;81.00;;;;;;5067352;28;19915;-11
2023/01/11 11:34:03;;;;;;;;;;;17.60;81.70;;;;;;5066829;28;19961;-11
2023/01/11 11:37:10;;;;;;;;;;;17.50;82.50;;;;;;5069130;28;20197;-11
2023/01/11 11:39:35;;;;;;;;;;;17.40;83.40;;;;;;4984860;28;20305;-11
2023/01/11 11:42:06;;;;;;;;;;;17.30;84.30;;;;;;4968928;28;20315;-11
2023/01/11 11:44:35;;;;;;;;;;;17.20;85.10;;;;;;5009555;28;19926;-11
2023/01/11 11:47:02;;;;;;;;;;;17.10;85.80;;;;;;5067763;28;20003;-11
2023/01/11 11:49:41;;;;;;;;;;;17.00;86.60;;;;;;5049617;28;20060;-11
2023/01/11 11:52:16;;;;;;;;;;;17.00;86.80;;;;;;5049263;28;20326;-11
2023/01/11 11:55:11;;;;;;;;;;;17.00;86.70;;;;;;5049615;28;19970;-11
2023/01/11 11:57:53;;;;;;;;;;;17.10;86.60;;;;;;5064883;28;20120;-11
2023/01/11 12:00:32;;;;;;;;;;;17.40;85.20;;;;;;5045605;28;20143;-11
2023/01/11 12:03:03;;;;;;;;;;;17.60;83.40;;;;;;5063239;28;20213;-11
2023/01/11 12:05:35;;;;;;;;;;;18.00;81.40;;;;;;5045872;28;20215;-11
2023/01/11 12:08:01;;;;;;;;;;;18.20;79.90;;;;;;5062956;28;20305;-11
2023/01/11 12:10:37;;;;;;;;;;;18.40;78.30;;;;;;5063772;28;19916;-11
2023/01/11 12:13:23;;;;;;;;;;;18.60;76.90;;;;;;5063078;28;20019;-11
2023/01/11 12:15:58;;;;;;;;;;;18.70;75.80;;;;;;5063168;28;20147;-11
2023/01/11 12:18:31;;;;;;;;;;;18.80;75.00;;;;;;5045474;28;19908;-11
2023/01/11 12:21:07;;;;;;;;;;;18.80;74.60;;;;;;5046439;28;20204;-10
2023/01/11 12:23:32;;;;;;;;;;;18.80;74.60;;;;;;5064068;28;20016;-10
2023/01/11 12:26:10;;;;;;;;;;;18.80;74.30;;;;;;5044429;28;20015;-10
2023/01/11 12:28:41;;;;;;;;;;;18.80;74.50;;;;;;5064782;28;20003;-10
2023/01/11 12:31:33;;;;;;;;;;;18.70;74.80;;;;;;5064027;28;19973;-11
2023/01/11 12:33:59;;;;;;;;;;;18.60;75.20;;;;;;5032876;28;19909;-11
2023/01/11 12:36:24;;;;;;;;;;;18.60;75.90;;;;;;5045763;28;20347;-11
2023/01/11 12:39:09;;;;;;;;;;;18.50;76.40;;;;;;5064684;28;19909;-11
2023/01/11 12:41:47;;;;;;;;;;;18.40;77.10;;;;;;5047556;28;19923;-11
2023/01/11 12:44:29;;;;;;;;;;;18.30;77.80;;;;;;5062903;28;19916;-11
2023/01/11 12:47:14;;;;;;;;;;;18.20;78.50;;;;;;5046609;28;19912;-11
2023/01/11 12:49:59;;;;;;;;;;;18.10;79.10;;;;;;5066665;28;20261;-11
2023/01/11 12:52:25;;;;;;;;;;;18.00;79.80;;;;;;5046531;28;19999;-11
2023/01/11 12:55:03;;;;;;;;;;;17.90;80.40;;;;;;5046036;28;20007;-11
2023/01/11 12:57:59;;;;;;;;;;;17.90;81.00;;;;;;5065338;28;20191;-11
2023/01/11 13:00:36;;;;;;;;;;;17.80;81.30;;;;;;5049164;28;19909;-11
2023/01/11 13:03:22;;;;;;;;;;;17.70;81.70;;;;;;5065480;28;20428;-11
2023/01/11 13:06:04;;;;;;;;;;;17.70;82.10;;;;;;5045500;28;19915;-11
2023/01/11 13:08:42;;;;;;;;;;;17.70;82.50;;;;;;5045869;28;20149;-11
2023/01/11 13:11:42;;;;;;;;;;;17.60;82.60;;;;;;5063139;28;20258;-11
2023/01/11 13:14:10;;;;;;;;;;;17.60;82.70;;;;;;5049506;28;19917;-11
2023/01/11 13:16:54;;;;;;;;;;;17.70;82.70;;;;;;5066538;28;20080;-11
2023/01/11 13:19:23;;;;;;;;;;;17.70;82.60;;;;;;5047215;28;20183;-11
2023/01/11 13:21:53;;;;;;;;;;;17.70;82.30;;;;;;5066118;28;19966;-10
2023/01/11 13:24:27;;;;;;;;;;;17.70;82.20;;;;;;5064837;28;20022;-10
2023/01/11 13:27:01;;;;;;;;;;;17.80;82.00;;;;;;5064695;28;19919;-10
2023/01/11 13:29:43;;;;;;;;;;;17.80;81.70;;;;;;5063225;28;19909;-10
2023/01/11 13:32:38;;;;;;;;;;;17.90;81.00;;;;;;5064811;28;20011;-10
2023/01/11 13:35:07;;;;;;;;;;;18.00;80.60;;;;;;5062199;28;19919;-10
2023/01/11 13:38:00;;;;;;;;;;;18.10;80.10;;;;;;5063995;28;19915;-10
2023/01/11 13:40:45;;;;;;;;;;;18.10;79.60;;;;;;5065049;28;19916;-10
2023/01/11 13:43:37;;;;;;;;;;;18.20;79.40;;;;;;5065901;28;20029;-10
2023/01/11 13:46:12;;;;;;;;;;;18.20;79.00;;;;;;5046786;28;19961;-10
2023/01/11 13:48:43;;;;;;;;;;;18.20;78.50;;;;;;5046239;28;20242;-10
2023/01/11 13:51:31;;;;;;;;;;;18.30;78.50;;;;;;5060761;28;20186;-11
2023/01/11 13:54:15;;;;;;;;;;;18.30;78.50;;;;;;5065601;28;20032;-11
2023/01/11 13:56:53;;;;;;;;;;;18.30;78.00;;;;;;5067830;28;19976;-11
2023/01/11 14:00:06;;;;;;;;;;;18.30;78.00;;;;;;5070826;28;20221;-10
2023/01/11 14:02:36;;;;;;;;;;;18.30;77.90;;;;;;4986635;28;19966;-10
2023/01/11 14:05:17;;;;;;;;;;;18.30;78.00;;;;;;5049821;28;19909;-10
2023/01/11 14:07:49;;;;;;;;;;;18.20;78.30;;;;;;5050726;28;20060;-10
2023/01/11 14:10:14;;;;;;;;;;;18.20;78.80;;;;;;5050800;28;19909;-10
2023/01/11 14:13:00;;;;;;;;;;;18.10;78.90;;;;;;5050008;28;19909;-10
2023/01/11 14:15:38;;;;;;;;;;;18.10;79.20;;;;;;5047823;28;19959;-10
2023/01/11 14:18:07;;;;;;;;;;;18.00;79.50;;;;;;5046800;28;20337;-10
2023/01/11 14:21:04;;;;;;;;;;;18.00;79.80;;;;;;5048673;28;20175;-10
2023/01/11 14:23:41;;;;;;;;;;;17.90;80.00;;;;;;5049369;28;20176;-10
2023/01/11 14:26:19;;;;;;;;;;;17.90;80.20;;;;;;5029457;28;20194;-10
2023/01/11 14:28:48;;;;;;;;;;;17.80;80.50;;;;;;5032011;28;19909;-10
2023/01/11 14:31:33;;;;;;;;;;;17.80;80.70;;;;;;5048932;28;19955;-10
2023/01/11 14:34:17;;;;;;;;;;;17.80;80.80;;;;;;5049128;28;20086;-10
2023/01/11 14:36:58;;;;;;;;;;;17.70;81.30;;;;;;5048620;28;20061;-10
2023/01/11 14:39:32;;;;;;;;;;;17.70;81.70;;;;;;5049068;28;20153;-10
2023/01/11 14:42:19;;;;;;;;;;;17.60;81.90;;;;;;5049401;28;19992;-10
2023/01/11 14:44:53;;;;;;;;;;;17.60;82.10;;;;;;5020441;28;19909;-10
2023/01/11 14:47:52;;;;;;;;;;;17.60;82.40;;;;;;5050427;28;20062;-10
2023/01/11 14:50:39;;;;;;;;;;;17.50;82.50;;;;;;5050014;28;20278;-10
2023/01/11 14:53:06;;;;;;;;;;;17.60;82.60;;;;;;5046124;28;20187;-10
2023/01/11 14:55:36;;;;;;;;;;;17.50;82.70;;;;;;5048871;28;20521;-10
2023/01/11 14:58:12;;;;;;;;;;;17.50;82.90;;;;;;5031628;28;19912;-10
2023/01/11 15:00:40;;;;;;;;;;;17.50;82.80;;;;;;5049350;28;19908;-10
2023/01/11 15:03:28;;;;;;;;;;;17.50;82.60;;;;;;5068923;28;20326;-10
2023/01/11 15:05:57;;;;;;;;;;;17.60;82.60;;;;;;5068830;28;20178;-10
2023/01/11 15:08:25;;;;;;;;;;;17.60;82.50;;;;;;5068292;28;19916;-10
2023/01/11 15:11:00;;;;;;;;;;;17.60;82.40;;;;;;5049685;28;19975;-10
2023/01/11 15:13:44;;;;;;;;;;;17.60;82.00;;;;;;5066721;28;19917;-10
2023/01/11 15:19:11;;;;;;;;;;;17.70;81.80;;;;;;5068041;28;20328;-10
2023/01/11 15:21:49;;;;;;;;;;;17.70;81.50;;;;;;5050077;28;20054;-10
2023/01/11 15:24:34;;;;;;;;;;;17.70;81.50;;;;;;5048118;28;19915;-10
2023/01/11 15:27:03;;;;;;;;;;;17.70;81.30;;;;;;5050519;28;20259;-10
2023/01/11 15:29:29;;;;;;;;;;;17.70;81.00;;;;;;5050359;28;20058;-10
2023/01/11 15:32:00;;;;;;;;;;;17.70;81.00;;;;;;5069231;28;20163;-10
2023/01/11 15:34:27;;;;;;;;;;;17.60;81.40;;;;;;5051955;28;19963;-10
2023/01/11 15:37:11;;;;;;;;;;;17.50;82.30;;;;;;5069679;28;19919;-10
2023/01/11 15:39:57;;;;;;;;;;;17.40;83.10;;;;;;5068699;28;20104;-10
2023/01/11 15:42:38;;;;;;;;;;;17.20;83.90;;;;;;5052956;28;20214;-10
2023/01/11 15:45:19;;;;;;;;;;;17.10;84.70;;;;;;5069620;28;20194;-10
2023/01/11 15:48:03;;;;;;;;;;;17.00;85.70;;;;;;5068380;28;20315;-10
2023/01/11 15:50:35;;;;;;;;;;;16.90;86.60;;;;;;5067200;28;20130;-10
2023/01/11 15:53:07;;;;;;;;;;;16.80;87.40;;;;;;5050409;28;19920;-10
2023/01/11 15:55:58;;;;;;;;;;;16.70;87.60;;;;;;5067720;28;19908;-10
2023/01/11 15:58:35;;;;;;;;;;;16.80;87.70;;;;;;5050143;28;19913;-10